createdAt,value
2023-10-23T00:01:19.252Z,4.07
2023-10-23T00:03:45.738Z,2.97
2023-10-23T00:06:12.168Z,3.78
2023-10-23T00:08:38.464Z,4.05
2023-10-23T00:11:04.727Z,3.97
2023-10-23T00:13:31.095Z,2.85
2023-10-23T00:15:57.392Z,3.72
2023-10-23T00:18:23.739Z,2.97
2023-10-23T00:20:50.077Z,3.35
2023-10-23T00:23:16.342Z,3.33
2023-10-23T00:25:42.616Z,2.72
2023-10-23T00:28:09.002Z,3.38
2023-10-23T00:30:36.983Z,2.95
2023-10-23T00:33:03.809Z,2.95
2023-10-23T00:35:30.164Z,3.45
2023-10-23T00:37:56.515Z,3.55
2023-10-23T00:40:22.810Z,3.92
2023-10-23T00:42:49.256Z,2.90
2023-10-23T00:45:15.586Z,2.78
2023-10-23T00:47:42.016Z,2.97
2023-10-23T00:50:08.304Z,3.30
2023-10-23T00:52:34.573Z,3.38
2023-10-23T00:55:01.376Z,3.28
2023-10-23T00:57:27.771Z,2.90
2023-10-23T00:59:55.048Z,3.75
2023-10-23T01:02:21.373Z,3.20
2023-10-23T01:04:47.725Z,3.67
2023-10-23T01:07:14.033Z,3.13
2023-10-23T01:09:40.461Z,2.90
2023-10-23T01:12:07.069Z,3.67
2023-10-23T01:14:33.425Z,3.25
2023-10-23T01:16:59.717Z,3.40
2023-10-23T01:19:26.117Z,4.38
2023-10-23T01:21:52.392Z,4.50
2023-10-23T01:24:19.770Z,4.05
2023-10-23T01:26:46.075Z,4.57
2023-10-23T01:29:12.357Z,3.63
2023-10-23T01:31:38.721Z,3.45
2023-10-23T01:34:05.100Z,3.53
2023-10-23T01:36:31.377Z,3.20
2023-10-23T01:38:57.708Z,2.92
2023-10-23T01:41:23.991Z,4.18
2023-10-23T01:43:50.241Z,2.97
2023-10-23T01:46:16.518Z,3.53
2023-10-23T01:48:43.364Z,3.65
2023-10-23T01:51:09.654Z,3.72
2023-10-23T01:53:36.555Z,3.83
2023-10-23T01:58:29.009Z,4.10
2023-10-23T02:00:55.296Z,4.07
2023-10-23T02:03:21.837Z,3.90
2023-10-23T02:05:48.886Z,3.72
2023-10-23T02:10:43.875Z,3.17
2023-10-23T02:13:10.188Z,4.10
2023-10-23T02:15:36.463Z,3.30
2023-10-23T02:18:02.837Z,3.50
2023-10-23T02:20:29.156Z,3.75
2023-10-23T02:22:55.478Z,4.43
2023-10-23T02:25:21.980Z,4.07
2023-10-23T02:27:48.266Z,3.83
2023-10-23T02:30:14.608Z,3.88
2023-10-23T02:32:41.003Z,4.50
2023-10-23T02:35:07.491Z,4.10
2023-10-23T02:37:33.798Z,3.58
2023-10-23T02:40:00.824Z,3.90
2023-10-23T02:42:27.231Z,4.20
2023-10-23T02:44:53.662Z,3.05
2023-10-23T02:47:20.014Z,3.95
2023-10-23T02:49:46.300Z,4.03
2023-10-23T02:52:12.573Z,4.20
2023-10-23T02:54:38.949Z,4.10
2023-10-23T02:57:05.300Z,4.30
2023-10-23T02:59:31.901Z,3.63
2023-10-23T03:01:58.203Z,4.15
2023-10-23T03:04:24.612Z,4.13
2023-10-23T03:06:50.912Z,4.25
2023-10-23T03:09:17.170Z,4.22
2023-10-23T03:11:43.553Z,4.75
2023-10-23T03:14:09.868Z,4.03
2023-10-23T03:16:36.435Z,4.13
2023-10-23T03:19:02.845Z,3.70
2023-10-23T03:21:29.204Z,3.45
2023-10-23T03:23:55.641Z,3.72
2023-10-23T03:26:22.025Z,4.18
2023-10-23T03:28:48.301Z,3.95
2023-10-23T03:31:14.676Z,3.58
2023-10-23T03:33:42.409Z,3.72
2023-10-23T03:36:08.753Z,3.25
2023-10-23T03:38:35.117Z,4.03
2023-10-23T03:41:01.425Z,4.63
2023-10-23T03:43:27.887Z,4.60
2023-10-23T03:45:54.596Z,4.10
2023-10-23T03:48:21.002Z,4.45
2023-10-23T03:50:47.377Z,3.95
2023-10-23T03:53:13.708Z,4.00
2023-10-23T03:55:40.101Z,3.55
2023-10-23T03:58:06.420Z,3.78
2023-10-23T04:00:32.943Z,4.00
2023-10-23T04:02:59.359Z,4.25
2023-10-23T04:05:25.684Z,4.72
2023-10-23T04:07:52.105Z,3.78
2023-10-23T04:10:18.507Z,4.05
2023-10-23T04:12:44.825Z,4.03
2023-10-23T04:15:11.128Z,3.90
2023-10-23T04:17:37.426Z,4.20
2023-10-23T04:20:04.203Z,4.50
2023-10-23T04:22:30.936Z,4.78
2023-10-23T04:24:57.393Z,4.68
2023-10-23T04:27:23.852Z,4.60
2023-10-23T04:29:50.147Z,5.03
2023-10-23T04:32:16.457Z,5.47
2023-10-23T04:34:43.115Z,4.60
2023-10-23T04:37:09.419Z,5.32
2023-10-23T04:39:35.773Z,4.63
2023-10-23T04:42:02.931Z,4.90
2023-10-23T04:44:29.327Z,4.20
2023-10-23T04:46:55.721Z,4.00
2023-10-23T04:49:22.091Z,4.85
2023-10-23T04:51:48.380Z,4.72
2023-10-23T04:54:15.252Z,5.25
2023-10-23T04:56:42.605Z,4.20
2023-10-23T04:59:09.022Z,3.80
2023-10-23T05:01:35.286Z,6.05
2023-10-23T05:04:01.650Z,5.43
2023-10-23T05:06:28.109Z,4.85
2023-10-23T05:08:54.514Z,4.68
2023-10-23T05:11:20.822Z,4.57
2023-10-23T05:13:47.305Z,4.03
2023-10-23T05:16:18.174Z,3.53
2023-10-23T05:18:44.733Z,3.95
2023-10-23T05:21:11.714Z,4.28
2023-10-23T05:26:04.244Z,3.30
2023-10-23T05:28:30.571Z,4.25
2023-10-23T05:30:56.875Z,3.50
2023-10-23T05:33:23.203Z,3.70
2023-10-23T05:35:49.523Z,4.03
2023-10-23T05:38:15.792Z,4.25
2023-10-23T05:40:42.145Z,4.00
2023-10-23T05:43:08.431Z,4.93
2023-10-23T05:45:37.004Z,4.63
2023-10-23T05:48:03.783Z,5.07
2023-10-23T05:50:30.244Z,5.07
2023-10-23T05:52:56.500Z,5.25
2023-10-23T05:55:22.788Z,4.68
2023-10-23T05:57:49.156Z,4.68
2023-10-23T06:00:15.669Z,4.80
2023-10-23T06:02:41.982Z,3.75
2023-10-23T06:05:10.193Z,4.93
2023-10-23T06:07:36.650Z,4.22
2023-10-23T06:10:04.251Z,4.45
2023-10-23T06:12:30.848Z,4.60
2023-10-23T06:14:59.271Z,5.50
2023-10-23T06:17:25.746Z,4.47
2023-10-23T06:19:52.079Z,4.00
2023-10-23T06:22:18.352Z,4.25
2023-10-23T06:24:45.795Z,4.70
2023-10-23T06:27:12.095Z,5.40
2023-10-23T06:29:38.672Z,5.05
2023-10-23T06:32:05.524Z,5.57
2023-10-23T06:34:31.865Z,4.55
2023-10-23T06:36:58.150Z,4.57
2023-10-23T06:39:24.590Z,3.88
2023-10-23T06:41:51.720Z,4.20
2023-10-23T06:44:20.359Z,4.20
2023-10-23T06:46:46.686Z,4.60
2023-10-23T06:49:12.965Z,4.82
2023-10-23T06:51:39.245Z,4.60
2023-10-23T06:54:05.633Z,4.80
2023-10-23T06:56:31.928Z,5.55
2023-10-23T06:58:58.190Z,4.60
2023-10-23T07:01:37.999Z,4.30
2023-10-23T07:04:10.674Z,4.70
2023-10-23T07:06:37.014Z,5.32
2023-10-23T07:09:03.711Z,5.13
2023-10-23T07:11:30.134Z,4.75
2023-10-23T07:13:56.438Z,4.78
2023-10-23T07:16:23.149Z,4.10
2023-10-23T07:18:49.536Z,4.47
2023-10-23T07:21:16.486Z,5.10
2023-10-23T07:23:43.009Z,4.70
2023-10-23T07:26:14.019Z,5.32
2023-10-23T07:28:40.555Z,4.75
2023-10-23T07:31:07.359Z,4.72
2023-10-23T07:33:33.733Z,4.90
2023-10-23T07:36:00.880Z,4.43
2023-10-23T07:38:27.145Z,5.10
2023-10-23T07:40:53.399Z,6.28
2023-10-23T07:43:19.729Z,5.10
2023-10-23T07:45:47.573Z,5.15
2023-10-23T07:48:15.125Z,5.60
2023-10-23T07:50:41.805Z,6.50
2023-10-23T07:53:08.696Z,6.40
2023-10-23T07:58:01.404Z,13.20
2023-10-23T08:00:29.714Z,6.65
2023-10-23T08:02:56.268Z,5.82
2023-10-23T08:05:22.634Z,6.38
2023-10-23T08:07:48.910Z,7.25
2023-10-23T08:10:15.320Z,10.20
2023-10-23T08:12:41.927Z,5.88
2023-10-23T08:15:08.585Z,21.38
2023-10-23T08:17:42.115Z,8.68
2023-10-23T08:20:09.793Z,8.52
2023-10-23T08:25:02.316Z,6.38
2023-10-23T08:27:28.747Z,5.45
2023-10-23T08:29:54.988Z,6.65
2023-10-23T08:32:23.043Z,8.68
2023-10-23T08:34:54.674Z,7.38
2023-10-23T08:37:21.328Z,5.85
2023-10-23T08:39:47.694Z,6.15
2023-10-23T08:42:14.157Z,6.15
2023-10-23T08:44:40.499Z,6.60
2023-10-23T08:47:06.893Z,6.50
2023-10-23T08:49:33.237Z,19.58
2023-10-23T08:52:00.642Z,8.73
2023-10-23T08:54:28.208Z,7.65
2023-10-23T08:57:01.278Z,6.93
2023-10-23T08:59:27.598Z,7.38
2023-10-23T09:02:01.470Z,7.63
2023-10-23T09:04:29.495Z,12.18
2023-10-23T09:06:57.231Z,8.77
2023-10-23T09:09:24.842Z,7.45
2023-10-23T09:11:51.673Z,11.07
2023-10-23T09:14:28.168Z,5.85
2023-10-23T09:16:55.812Z,7.22
2023-10-23T09:19:26.487Z,6.68
2023-10-23T09:21:59.314Z,9.75
2023-10-23T09:24:26.215Z,6.70
2023-10-23T09:26:52.713Z,6.28
2023-10-23T09:29:23.055Z,7.15
2023-10-23T09:31:49.868Z,6.55
2023-10-23T09:36:42.690Z,7.15
2023-10-23T09:39:08.982Z,7.30
2023-10-23T09:41:36.957Z,6.55
2023-10-23T09:44:04.878Z,6.60
2023-10-23T09:46:32.042Z,7.13
2023-10-23T09:49:04.773Z,7.63
2023-10-23T09:51:37.586Z,6.70
2023-10-23T09:54:07.575Z,6.53
2023-10-23T09:56:34.832Z,7.65
2023-10-23T09:59:05.597Z,7.55
2023-10-23T10:01:35.899Z,6.60
2023-10-23T10:04:07.313Z,6.72
2023-10-23T10:06:34.644Z,6.68
2023-10-23T10:09:01.938Z,6.97
2023-10-23T10:11:28.335Z,7.07
2023-10-23T10:13:54.865Z,7.03
2023-10-23T10:16:21.313Z,6.68
2023-10-23T10:18:47.871Z,7.65
2023-10-23T10:21:16.160Z,7.05
2023-10-23T10:23:42.739Z,8.32
2023-10-23T10:26:09.540Z,6.35
2023-10-23T10:28:37.464Z,7.82
2023-10-23T10:31:04.149Z,8.35
2023-10-23T10:34:24.958Z,8.05
2023-10-23T10:36:45.057Z,7.17
2023-10-23T10:39:06.564Z,7.00
2023-10-23T10:41:34.755Z,7.47
2023-10-23T10:44:01.059Z,6.55
2023-10-23T10:46:27.601Z,6.65
2023-10-23T10:48:54.597Z,7.40
2023-10-23T10:53:47.787Z,6.25
2023-10-23T10:58:41.133Z,6.35
2023-10-23T11:01:09.161Z,6.57
2023-10-23T11:03:35.803Z,6.45
2023-10-23T11:06:02.187Z,6.75
2023-10-23T11:08:29.252Z,6.40
2023-10-23T11:11:01.697Z,6.93
2023-10-23T11:13:28.038Z,6.68
2023-10-23T11:15:55.746Z,6.95
2023-10-23T11:18:22.157Z,6.45
2023-10-23T11:23:15.909Z,6.35
2023-10-23T11:28:08.442Z,6.13
2023-10-23T11:30:44.448Z,6.85
2023-10-23T11:33:11.083Z,6.18
2023-10-23T11:35:37.378Z,7.07
2023-10-23T11:38:05.933Z,5.93
2023-10-23T11:40:33.756Z,5.97
2023-10-23T11:43:00.163Z,6.60
2023-10-23T11:45:27.939Z,6.47
2023-10-23T11:47:54.362Z,6.75
2023-10-23T11:50:22.856Z,5.63
2023-10-23T11:52:49.719Z,5.68
2023-10-23T11:55:16.989Z,4.47
2023-10-23T11:57:46.145Z,5.43
2023-10-23T12:00:13.595Z,4.88
2023-10-23T12:02:40.618Z,4.53
2023-10-23T12:07:34.466Z,5.05
2023-10-23T12:10:00.801Z,5.07
2023-10-23T12:12:27.138Z,4.93
2023-10-23T12:14:55.294Z,4.65
2023-10-23T12:17:21.888Z,4.70
2023-10-23T12:19:48.605Z,4.55
2023-10-23T12:22:14.939Z,4.95
2023-10-23T12:24:41.279Z,4.72
2023-10-23T12:27:07.545Z,4.70
2023-10-23T12:29:33.866Z,4.45
2023-10-23T12:32:02.548Z,4.20
2023-10-23T12:34:32.684Z,5.43
2023-10-23T12:36:59.570Z,5.10
2023-10-23T12:39:26.587Z,4.68
2023-10-23T12:44:19.141Z,4.85
2023-10-23T12:46:49.491Z,3.72
2023-10-23T12:49:17.987Z,5.25
2023-10-23T12:51:44.462Z,4.70
2023-10-23T12:54:12.002Z,5.25
2023-10-23T12:56:38.317Z,5.55
2023-10-23T12:59:06.029Z,5.25
2023-10-23T13:01:32.428Z,5.40
2023-10-23T13:04:00.862Z,5.10
2023-10-23T13:06:27.328Z,5.50
2023-10-23T13:08:53.584Z,14.35
2023-10-23T13:11:19.903Z,6.75
2023-10-23T13:13:46.157Z,6.85
2023-10-23T13:16:15.143Z,6.15
2023-10-23T13:18:53.590Z,6.70
2023-10-23T13:21:33.622Z,5.82
2023-10-23T13:24:02.056Z,6.82
2023-10-23T13:26:28.310Z,6.82
2023-10-23T13:28:54.589Z,7.30
2023-10-23T13:31:20.877Z,6.70
2023-10-23T13:33:47.534Z,6.72
2023-10-23T13:36:13.884Z,6.57
2023-10-23T13:38:40.155Z,7.13
2023-10-23T13:41:07.097Z,6.72
2023-10-23T13:46:00.133Z,8.30
2023-10-23T13:48:26.521Z,8.18
2023-10-23T13:50:53.095Z,8.70
2023-10-23T13:53:20.581Z,8.40
2023-10-23T13:55:46.990Z,7.53
2023-10-23T13:58:13.496Z,8.60
2023-10-23T14:00:40.004Z,9.18
2023-10-23T14:03:07.059Z,8.75
2023-10-23T14:05:34.787Z,9.90
2023-10-23T14:08:04.539Z,9.63
2023-10-23T14:10:31.024Z,11.27
2023-10-23T14:12:57.845Z,10.60
2023-10-23T14:15:24.457Z,10.25
2023-10-23T14:17:51.047Z,11.00
2023-10-23T14:20:17.851Z,9.98
2023-10-23T14:22:44.103Z,11.18
2023-10-23T14:25:11.186Z,11.43
2023-10-23T14:27:40.128Z,15.02
2023-10-23T14:30:08.702Z,26.70
2023-10-23T14:32:35.995Z,19.30
2023-10-23T14:35:02.467Z,29.10
2023-10-23T14:37:28.778Z,33.58
2023-10-23T14:39:57.241Z,49.92
2023-10-23T14:42:25.540Z,59.03
2023-10-23T14:44:51.860Z,25.80
2023-10-23T14:47:18.265Z,15.80
2023-10-23T14:49:44.714Z,16.25
2023-10-23T14:52:11.147Z,18.08
2023-10-23T14:54:38.188Z,20.65
2023-10-23T14:57:05.071Z,39.67
2023-10-23T15:02:00.407Z,31.77
2023-10-23T15:04:27.269Z,32.03
2023-10-23T15:09:21.129Z,19.95
2023-10-23T15:11:47.501Z,17.52
2023-10-23T15:14:13.799Z,18.60
2023-10-23T15:16:40.156Z,23.50
2023-10-23T15:19:06.607Z,21.63
2023-10-23T15:21:32.999Z,18.65
2023-10-23T15:24:00.218Z,24.42
2023-10-23T15:26:26.652Z,20.15
2023-10-23T15:28:52.925Z,20.40
2023-10-23T15:31:19.283Z,18.92
2023-10-23T15:33:45.631Z,18.48
2023-10-23T15:36:13.514Z,19.77
2023-10-23T15:38:39.973Z,17.70
2023-10-23T15:41:09.930Z,21.02
2023-10-23T15:43:37.392Z,21.85
2023-10-23T15:46:04.719Z,19.92
2023-10-23T15:48:31.093Z,18.65
2023-10-23T15:50:57.960Z,18.38
2023-10-23T15:53:24.540Z,16.80
2023-10-23T15:55:50.980Z,34.25
2023-10-23T15:58:17.563Z,40.88
2023-10-23T16:00:43.890Z,25.08
2023-10-23T16:03:10.222Z,27.35
2023-10-23T16:05:36.622Z,18.67
2023-10-23T16:08:03.857Z,19.55
2023-10-23T16:10:32.553Z,22.10
2023-10-23T16:12:58.975Z,20.77
2023-10-23T16:15:25.266Z,34.75
2023-10-23T16:17:51.567Z,15.48
2023-10-23T16:20:17.860Z,15.38
2023-10-23T16:22:44.145Z,14.57
2023-10-23T16:25:10.489Z,15.02
2023-10-23T16:27:36.946Z,16.08
2023-10-23T16:30:10.831Z,17.85
2023-10-23T16:32:39.245Z,28.10
2023-10-23T16:35:05.721Z,40.20
2023-10-23T16:37:32.052Z,41.33
2023-10-23T16:39:58.428Z,38.13
2023-10-23T16:42:24.750Z,17.35
2023-10-23T16:44:56.347Z,15.52
2023-10-23T16:47:23.139Z,15.13
2023-10-23T16:49:50.170Z,18.67
2023-10-23T16:54:42.718Z,14.55
2023-10-23T16:57:10.414Z,18.10
2023-10-23T16:59:37.158Z,15.52
2023-10-23T17:02:03.918Z,25.92
2023-10-23T17:06:57.516Z,12.43
2023-10-23T17:09:23.822Z,13.18
2023-10-23T17:11:50.107Z,15.93
2023-10-23T17:14:16.355Z,13.27
2023-10-23T17:16:42.719Z,12.90
2023-10-23T17:19:09.105Z,12.95
2023-10-23T17:21:35.465Z,12.15
2023-10-23T17:24:01.720Z,13.85
2023-10-23T17:26:29.336Z,15.80
2023-10-23T17:28:58.465Z,20.95
2023-10-23T17:31:24.923Z,25.73
2023-10-23T17:33:51.297Z,22.48
2023-10-23T17:36:19.906Z,16.83
2023-10-23T17:38:46.497Z,14.75
2023-10-23T17:41:18.788Z,12.73
2023-10-23T17:43:45.103Z,12.35
2023-10-23T17:46:11.550Z,11.23
2023-10-23T17:48:38.410Z,10.68
2023-10-23T17:51:05.717Z,11.00
2023-10-23T17:53:31.976Z,9.55
2023-10-23T17:55:58.304Z,9.65
2023-10-23T17:58:25.677Z,9.80
2023-10-23T18:00:52.049Z,11.02
2023-10-23T18:03:19.390Z,11.68
2023-10-23T18:05:47.245Z,11.00
2023-10-23T18:08:13.629Z,11.65
2023-10-23T18:10:39.954Z,13.00
2023-10-23T18:13:06.248Z,12.57
2023-10-23T18:15:32.547Z,29.70
2023-10-23T18:17:58.849Z,62.35
2023-10-23T18:20:28.983Z,21.90
2023-10-23T18:22:58.021Z,22.23
2023-10-23T18:25:24.440Z,19.95
2023-10-23T18:27:50.769Z,17.63
2023-10-23T18:30:17.327Z,23.30
2023-10-23T18:32:44.485Z,19.13
2023-10-23T18:35:11.996Z,16.65
2023-10-23T18:37:38.576Z,15.77
2023-10-23T18:40:05.958Z,18.05
2023-10-23T18:42:37.204Z,34.83
2023-10-23T18:45:06.046Z,21.00
2023-10-23T18:47:32.895Z,17.08
2023-10-23T18:50:01.260Z,16.17
2023-10-23T18:52:27.591Z,12.60
2023-10-23T18:54:53.903Z,11.85
2023-10-23T18:57:20.157Z,12.73
2023-10-23T18:59:47.122Z,27.58
2023-10-23T19:04:39.734Z,23.83
2023-10-23T19:07:06.076Z,26.95
2023-10-23T19:09:32.346Z,18.52
2023-10-23T19:11:58.633Z,14.82
2023-10-23T19:14:24.896Z,11.43
2023-10-23T19:16:51.336Z,12.40
2023-10-23T19:19:17.986Z,12.57
2023-10-23T19:21:44.276Z,13.32
2023-10-23T19:24:14.185Z,13.80
2023-10-23T19:26:43.615Z,13.32
2023-10-23T19:29:09.936Z,13.35
2023-10-23T19:31:36.399Z,12.68
2023-10-23T19:34:02.823Z,12.13
2023-10-23T19:36:29.928Z,13.32
2023-10-23T19:38:56.340Z,12.45
2023-10-23T19:41:25.740Z,11.23
2023-10-23T19:43:52.208Z,13.02
2023-10-23T19:46:19.426Z,12.25
2023-10-23T19:48:46.374Z,11.88
2023-10-23T19:51:16.414Z,11.23
2023-10-23T19:53:48.385Z,12.63
2023-10-23T19:56:29.382Z,12.45
2023-10-23T19:58:59.043Z,11.90
2023-10-23T20:01:25.481Z,11.75
2023-10-23T20:03:51.855Z,12.38
2023-10-23T20:06:18.141Z,12.57
2023-10-23T20:08:44.726Z,12.15
2023-10-23T20:11:11.022Z,13.40
2023-10-23T20:13:37.545Z,12.68
2023-10-23T20:16:04.864Z,12.23
2023-10-23T20:18:31.736Z,17.08
2023-10-23T20:20:58.006Z,14.80
2023-10-23T20:23:24.296Z,14.57
2023-10-23T20:25:50.574Z,12.80
2023-10-23T20:28:16.971Z,12.82
2023-10-23T20:30:43.796Z,11.38
2023-10-23T20:33:10.479Z,19.63
2023-10-23T20:35:37.062Z,20.73
2023-10-23T20:38:05.137Z,13.35
2023-10-23T20:40:31.473Z,12.15
2023-10-23T20:42:57.793Z,12.45
2023-10-23T20:45:24.034Z,12.75
2023-10-23T20:47:50.413Z,16.88
2023-10-23T20:50:18.035Z,15.98
2023-10-23T20:52:44.331Z,13.70
2023-10-23T20:55:10.683Z,12.90
2023-10-23T20:57:37.031Z,12.77
2023-10-23T21:00:07.160Z,12.60
2023-10-23T21:02:33.848Z,10.65
2023-10-23T21:05:00.234Z,9.75
2023-10-23T21:07:26.587Z,9.15
2023-10-23T21:09:53.882Z,9.30
2023-10-23T21:12:20.239Z,9.25
2023-10-23T21:14:47.687Z,9.32
2023-10-23T21:17:14.492Z,8.05
2023-10-23T21:19:41.259Z,7.57
2023-10-23T21:24:33.974Z,6.10
2023-10-23T21:27:00.243Z,6.00
2023-10-23T21:29:26.570Z,6.85
2023-10-23T21:31:53.278Z,6.72
2023-10-23T21:34:20.049Z,6.05
2023-10-23T21:36:46.570Z,6.30
2023-10-23T21:39:12.966Z,7.43
2023-10-23T21:41:39.747Z,5.70
2023-10-23T21:44:06.183Z,6.63
2023-10-23T21:46:32.802Z,6.03
2023-10-23T21:49:02.933Z,6.30
2023-10-23T21:51:29.766Z,7.15
2023-10-23T21:53:56.595Z,6.50
2023-10-23T21:57:14.007Z,7.65
2023-10-23T21:59:12.464Z,6.72
2023-10-23T22:01:40.739Z,7.15
2023-10-23T22:04:08.099Z,14.15
2023-10-23T22:06:34.581Z,17.98
2023-10-23T22:09:01.003Z,11.93
2023-10-23T22:11:27.393Z,13.60
2023-10-23T22:13:53.760Z,9.98
2023-10-23T22:16:20.091Z,8.80
2023-10-23T22:18:46.411Z,8.88
2023-10-23T22:21:12.676Z,8.55
2023-10-23T22:23:39.006Z,8.80
2023-10-23T22:26:05.295Z,9.60
2023-10-23T22:28:31.583Z,9.98
2023-10-23T22:30:57.992Z,9.88
2023-10-23T22:33:24.363Z,9.27
2023-10-23T22:35:50.813Z,9.38
2023-10-23T22:38:17.156Z,17.90
2023-10-23T22:40:44.845Z,33.50
2023-10-23T22:43:14.416Z,13.02
2023-10-23T22:46:01.796Z,15.88
2023-10-23T22:48:26.968Z,11.43
2023-10-23T22:50:53.474Z,9.75
2023-10-23T22:53:19.894Z,9.88
2023-10-23T22:55:46.359Z,11.75
2023-10-23T22:58:14.096Z,10.38
2023-10-23T23:00:40.489Z,9.20
2023-10-23T23:03:07.034Z,10.50
2023-10-23T23:05:33.440Z,10.07
2023-10-23T23:08:01.829Z,9.45
2023-10-23T23:10:28.660Z,10.10
2023-10-23T23:15:21.962Z,9.43
2023-10-23T23:17:48.376Z,9.15
2023-10-23T23:20:14.982Z,9.45
2023-10-23T23:22:41.292Z,9.10
2023-10-23T23:25:09.740Z,8.73
2023-10-23T23:27:36.260Z,8.20
2023-10-23T23:30:02.594Z,7.78
2023-10-23T23:32:28.980Z,9.52
2023-10-23T23:34:55.313Z,9.95
2023-10-23T23:37:21.615Z,9.45
2023-10-23T23:39:47.922Z,9.15
2023-10-23T23:42:14.752Z,9.23
2023-10-23T23:44:41.270Z,9.93
2023-10-23T23:47:07.774Z,10.38
2023-10-23T23:49:34.720Z,10.77
2023-10-23T23:54:27.466Z,12.10
2023-10-23T23:56:53.708Z,11.95
2023-10-23T23:59:20.116Z,11.63
